Time;durP1;ratioP1;P1;durP2;ratioP2;P2;SDS_P1;SDS_P2;PMS_P1;PMS_P2;Temp;Humidity;BMP_temperature;BMP_pressure;BME280_temperature;BME280_humidity;BME280_pressure;Samples;Min_cycle;Max_cycle;Signal;HPM_P1;HPM_P2
2022/10/07 00:01:06;;;;;;;29.38;15.27;;;;;;;16.81;90.33;102007.81;5032736;28;20037;-71
2022/10/07 00:03:34;;;;;;;32.45;16.55;;;;;;;16.94;89.74;101996.09;5032555;28;20056;-71
2022/10/07 00:06:06;;;;;;;29.73;15.15;;;;;;;16.88;90.19;101992.56;5032140;28;20037;-70
2022/10/07 00:08:35;;;;;;;27.85;14.15;;;;;;;16.83;89.72;101992.59;5032525;28;20163;-71
2022/10/07 00:11:06;;;;;;;26.00;15.85;;;;;;;16.66;90.70;101999.34;5031494;28;20041;-70
2022/10/07 00:13:37;;;;;;;28.33;15.13;;;;;;;16.66;90.39;101996.59;5031744;28;20053;-70
2022/10/07 00:16:08;;;;;;;29.95;14.60;;;;;;;16.65;91.14;101989.41;5031300;28;20050;-70
2022/10/07 00:18:37;;;;;;;25.40;13.52;;;;;;;16.63;91.14;101996.34;5032029;28;20034;-71
2022/10/07 00:21:08;;;;;;;28.52;14.45;;;;;;;16.67;90.32;102002.91;5032047;28;20042;-71
2022/10/07 00:23:36;;;;;;;26.70;14.07;;;;;;;16.69;90.72;102002.63;5032273;28;20054;-70
2022/10/07 00:26:06;;;;;;;24.15;13.73;;;;;;;16.65;90.26;101992.16;5032322;28;20046;-70
2022/10/07 00:28:35;;;;;;;24.67;12.27;;;;;;;16.58;89.74;101988.06;5032228;28;20511;-70
2022/10/07 00:31:06;;;;;;;27.58;14.35;;;;;;;16.55;90.81;101989.47;5032191;28;20066;-70
2022/10/07 00:33:37;;;;;;;28.70;14.02;;;;;;;16.47;91.68;101988.13;5032309;28;20045;-70
2022/10/07 00:36:10;;;;;;;23.90;12.45;;;;;;;16.51;90.46;101986.44;5032078;28;20057;-70
2022/10/07 00:38:56;;;;;;;22.65;12.80;;;;;;;16.54;89.43;101985.06;5032172;28;20045;-71
2022/10/07 00:41:31;;;;;;;21.70;12.10;;;;;;;16.59;89.53;101978.66;5030068;28;20050;-70
2022/10/07 00:44:31;;;;;;;21.17;11.90;;;;;;;16.58;88.99;101977.00;5031024;28;20412;-70
2022/10/07 00:47:09;;;;;;;24.17;13.52;;;;;;;16.59;88.92;101965.69;5031007;28;20041;-71
2022/10/07 00:50:01;;;;;;;19.42;12.00;;;;;;;16.55;89.02;101964.59;5031208;28;20061;-71
2022/10/07 00:52:34;;;;;;;22.08;11.90;;;;;;;16.50;89.54;101965.47;5030715;28;20484;-70
2022/10/07 00:55:08;;;;;;;20.95;11.75;;;;;;;16.52;89.60;101968.75;5030227;28;20061;-71
2022/10/07 00:57:37;;;;;;;;;;;;;;;16.47;89.45;101966.03;5032542;28;20049;-70
2022/10/07 01:00:06;;;;;;;21.83;11.02;;;;;;;16.46;90.16;101955.25;5031450;28;19925;-71
2022/10/07 01:02:36;;;;;;;20.85;12.25;;;;;;;16.46;90.16;101960.78;5030648;28;20064;-70
2022/10/07 01:05:07;;;;;;;20.73;11.38;;;;;;;16.36;91.47;101954.22;5031455;28;20056;-70
2022/10/07 01:07:35;;;;;;;20.90;11.13;;;;;;;16.26;90.64;101954.28;5047001;28;20057;-71
2022/10/07 01:10:05;;;;;;;21.20;11.30;;;;;;;16.43;89.40;101950.31;5031624;28;20037;-70
2022/10/07 01:13:02;;;;;;;21.02;11.43;;;;;;;16.50;89.00;101950.81;5030307;28;20041;-71
2022/10/07 01:15:54;;;;;;;20.92;10.65;;;;;;;16.43;89.23;101947.56;5031396;28;20053;-71
2022/10/07 01:18:30;;;;;;;18.95;11.05;;;;;;;16.45;89.42;101939.78;5033496;28;20054;-71
2022/10/07 01:21:24;;;;;;;21.30;11.77;;;;;;;16.38;89.22;101943.69;5050099;28;20613;-71
2022/10/07 01:24:24;;;;;;;21.15;11.15;;;;;;;16.40;89.56;101937.91;5019521;28;20399;-71
2022/10/07 01:27:18;;;;;;;21.25;10.95;;;;;;;16.28;90.45;101929.94;5013178;28;20049;-71
2022/10/07 01:30:03;;;;;;;22.67;11.85;;;;;;;16.16;90.49;101926.72;5034003;28;20050;-71
2022/10/07 01:32:37;;;;;;;20.77;11.73;;;;;;;16.24;90.39;101928.88;5034230;28;20053;-70
2022/10/07 01:35:11;;;;;;;21.95;12.25;;;;;;;16.24;90.50;101923.38;5050557;28;20047;-70
2022/10/07 01:37:45;;;;;;;23.15;12.57;;;;;;;16.27;89.83;101922.78;5051056;28;20050;-71
2022/10/07 01:40:25;;;;;;;20.50;11.88;;;;;;;16.26;90.07;101918.38;5035425;28;20053;-70
2022/10/07 01:42:54;;;;;;;19.40;11.05;;;;;;;16.21;90.17;101919.25;5035481;28;20041;-70
2022/10/07 01:45:26;;;;;;;22.50;12.80;;;;;;;16.20;90.13;101917.59;5030003;28;20050;-70
2022/10/07 01:47:54;;;;;;;21.83;11.93;;;;;;;16.16;90.33;101922.03;5042986;28;20041;-70
2022/10/07 01:50:26;;;;;;;23.60;12.32;;;;;;;16.10;90.35;101912.97;5029816;28;20050;-70
2022/10/07 01:53:20;;;;;;;22.25;11.95;;;;;;;16.05;91.50;101912.97;5042060;28;20052;-70
2022/10/07 01:55:54;;;;;;;25.98;13.48;;;;;;;16.11;90.67;101911.00;5030800;28;20084;-70
2022/10/07 01:58:48;;;;;;;18.65;11.43;;;;;;;16.19;90.25;101907.63;5033792;28;20400;-70
2022/10/07 02:01:34;;;;;;;19.95;10.82;;;;;;;16.21;89.59;101907.34;5033990;28;20061;-71
2022/10/07 02:05:01;;;;;;;23.98;12.07;;;;;;;16.14;90.10;101898.56;5046972;28;20068;-70
2022/10/07 02:07:35;;;;;;;25.10;11.70;;;;;;;15.97;90.80;101900.59;5008855;28;20670;-71
2022/10/07 02:10:27;;;;;;;23.35;11.43;;;;;;;15.96;90.59;101892.59;5029305;28;20054;-70
2022/10/07 02:13:15;;;;;;;19.33;11.05;;;;;;;15.91;91.24;101893.41;5046500;28;20065;-70
2022/10/07 02:15:55;;;;;;;18.45;10.45;;;;;;;15.88;91.02;101888.44;5033976;28;20049;-71
2022/10/07 02:18:26;;;;;;;21.85;11.50;;;;;;;15.99;90.07;101881.00;5032694;28;20112;-71
2022/10/07 02:20:57;;;;;;;18.52;10.52;;;;;;;15.84;90.80;101882.69;5032609;28;20510;-70
2022/10/07 02:23:26;;;;;;;22.33;10.93;;;;;;;15.80;90.45;101881.59;5029449;28;20041;-70
2022/10/07 02:25:56;;;;;;;20.52;10.55;;;;;;;15.83;91.02;101871.91;5033196;28;20060;-70
2022/10/07 02:28:24;;;;;;;16.50;10.20;;;;;;;15.77;90.97;101875.81;5049632;28;20376;-71
2022/10/07 02:30:59;;;;;;;18.77;10.90;;;;;;;15.76;90.54;101874.16;5030976;28;20054;-70
2022/10/07 02:33:29;;;;;;;17.02;10.38;;;;;;;15.76;91.12;101874.16;5034377;28;20403;-71
2022/10/07 02:36:03;;;;;;;21.45;10.65;;;;;;;15.79;90.98;101868.91;5033258;28;20049;-71
2022/10/07 02:38:32;;;;;;;18.10;10.13;;;;;;;15.79;90.95;101876.38;5046341;28;20050;-71
2022/10/07 02:41:32;;;;;;;18.35;9.73;;;;;;;15.80;90.44;101878.81;5026516;28;20296;-70
2022/10/07 02:44:24;;;;;;;18.58;10.07;;;;;;;15.74;91.85;101873.63;5032016;28;20048;-70
2022/10/07 02:47:16;;;;;;;19.75;10.27;;;;;;;15.63;90.58;101868.16;5028683;28;20038;-70
2022/10/07 02:49:49;;;;;;;17.00;9.43;;;;;;;15.62;91.08;101873.94;5027505;28;20053;-70
2022/10/07 02:52:19;;;;;;;16.10;9.73;;;;;;;15.79;91.34;101868.91;5034140;28;20053;-70
2022/10/07 02:54:59;;;;;;;18.30;9.02;;;;;;;15.79;89.78;101868.91;5032851;28;20060;-70
2022/10/07 02:57:33;;;;;;;18.17;9.93;;;;;;;15.66;90.66;101866.78;5034025;28;20380;-71
2022/10/07 03:00:03;;;;;;;21.13;9.93;;;;;;;15.53;90.80;101868.19;5033648;28;20048;-70
2022/10/07 03:03:00;;;;;;;17.58;9.30;;;;;;;15.61;90.16;101855.75;5049349;28;20042;-71
2022/10/07 03:05:57;;;;;;;15.90;9.52;;;;;;;15.45;91.33;101853.06;5022795;28;20061;-70
2022/10/07 03:08:26;;;;;;;14.52;8.90;;;;;;;15.50;91.07;101858.53;5035920;28;20045;-71
2022/10/07 03:10:55;;;;;;;15.93;9.55;;;;;;;15.47;91.09;101856.38;5045579;28;20050;-71
2022/10/07 03:13:24;;;;;;;16.70;8.52;;;;;;;15.31;92.19;101858.38;5048363;28;20484;-71
2022/10/07 03:15:56;;;;;;;24.30;9.50;;;;;;;15.43;91.33;101849.75;5047871;28;20072;-71
2022/10/07 03:18:27;;;;;;;18.17;9.07;;;;;;;15.64;90.26;101861.53;5028242;28;20049;-70
2022/10/07 03:21:18;;;;;;;16.02;8.93;;;;;;;15.60;90.16;101857.69;5021456;28;20408;-70
2022/10/07 03:23:52;;;;;;;13.85;8.40;;;;;;;15.65;90.09;101854.88;5048691;28;20053;-70
2022/10/07 03:26:24;;;;;;;13.02;8.48;;;;;;;15.65;88.81;101856.84;5048558;28;20045;-71
2022/10/07 03:28:53;;;;;;;13.13;8.60;;;;;;;15.55;89.26;101849.44;5048745;28;20049;-70
2022/10/07 03:31:21;;;;;;;15.07;7.68;;;;;;;15.59;89.92;101847.75;5031489;28;20041;-71
2022/10/07 03:33:56;;;;;;;15.23;8.20;;;;;;;15.62;89.62;101852.72;5048568;28;20046;-71
2022/10/07 03:36:27;;;;;;;15.50;8.73;;;;;;;15.57;89.54;101848.06;5048326;28;20488;-70
2022/10/07 03:38:55;;;;;;;14.73;8.55;;;;;;;15.56;89.50;101849.13;5032749;28;20062;-70
2022/10/07 03:41:24;;;;;;;18.52;9.68;;;;;;;15.53;90.38;101849.72;5030248;28;20488;-71
2022/10/07 03:43:58;;;;;;;14.70;9.00;;;;;;;15.52;89.51;101844.47;5027679;28;20046;-70
2022/10/07 03:46:27;;;;;;;16.95;9.10;;;;;;;15.51;90.94;101840.91;5030773;28;20064;-71
2022/10/07 03:48:55;;;;;;;17.95;8.98;;;;;;;15.51;89.31;101840.91;5031405;28;20044;-70
2022/10/07 03:51:23;;;;;;;13.38;9.20;;;;;;;15.45;89.69;101840.09;5031674;28;20056;-70
2022/10/07 03:53:56;;;;;;;13.70;9.15;;;;;;;15.46;89.28;101854.72;5032972;28;20048;-71
2022/10/07 03:56:28;;;;;;;15.60;7.88;;;;;;;15.42;89.65;101842.59;5048140;28;20072;-70
2022/10/07 03:58:56;;;;;;;17.10;8.15;;;;;;;15.49;89.10;101843.09;5027989;28;20049;-70
2022/10/07 04:01:24;;;;;;;14.23;8.68;;;;;;;15.44;89.48;101835.69;5024133;28;20042;-70
2022/10/07 04:04:00;;;;;;;14.10;8.73;;;;;;;15.49;88.93;101837.59;5028023;28;20050;-70
2022/10/07 04:06:33;;;;;;;13.23;8.15;;;;;;;15.32;88.97;101838.75;5031939;28;20045;-71
2022/10/07 04:09:05;;;;;;;15.88;8.52;;;;;;;15.42;89.16;101842.59;5012525;28;20050;-70
2022/10/07 04:11:34;;;;;;;17.08;8.63;;;;;;;15.57;87.99;101841.69;5031766;28;20056;-70
2022/10/07 04:14:02;;;;;;;15.00;8.10;;;;;;;15.45;88.34;101839.28;5016364;28;20781;-70
2022/10/07 04:16:32;;;;;;;14.68;8.43;;;;;;;15.47;88.78;101844.50;5046978;28;20045;-70
2022/10/07 04:19:06;;;;;;;15.15;8.27;;;;;;;15.37;88.67;101834.34;5027461;28;20041;-70
2022/10/07 04:21:34;;;;;;;14.27;7.97;;;;;;;15.30;89.72;101829.13;5014196;28;20042;-71
2022/10/07 04:24:02;;;;;;;14.07;7.60;;;;;;;15.26;89.69;101839.88;5036890;28;20042;-71
2022/10/07 04:26:31;;;;;;;13.82;7.95;;;;;;;15.22;88.72;101833.28;5045459;28;20515;-71
2022/10/07 04:28:59;;;;;;;11.60;7.80;;;;;;;15.26;88.64;101831.59;5024826;28;20581;-71
2022/10/07 04:31:34;;;;;;;13.05;6.90;;;;;;;15.21;89.08;101836.31;5024786;28;20050;-71
2022/10/07 04:34:12;;;;;;;17.23;7.07;;;;;;;15.41;88.30;101832.66;5024540;28;20050;-71
2022/10/07 04:36:42;;;;;;;10.85;7.20;;;;;;;15.38;88.69;101824.94;5047192;28;20045;-71
2022/10/07 04:39:13;;;;;;;14.75;7.07;;;;;;;15.28;88.65;101832.16;5026949;28;20053;-71
2022/10/07 04:41:53;;;;;;;13.38;7.82;;;;;;;15.26;89.47;101828.03;5043706;28;20065;-71
2022/10/07 04:44:27;;;;;;;13.95;7.03;;;;;;;15.23;89.72;101829.44;5027308;28;20037;-71
2022/10/07 04:47:02;;;;;;;12.95;7.00;;;;;;;15.18;88.81;101829.44;5029575;28;20049;-71
2022/10/07 04:49:31;;;;;;;13.98;8.50;;;;;;;15.19;89.07;101828.31;5028162;28;20053;-71
2022/10/07 04:52:01;;;;;;;11.77;7.07;;;;;;;15.28;89.26;101832.16;5027763;28;20041;-78
2022/10/07 04:54:34;;;;;;;11.43;6.80;;;;;;;15.96;86.30;101835.47;5047504;28;20044;-82
2022/10/07 04:57:03;;;;;;;13.43;7.03;;;;;;;16.39;83.83;101826.56;5045497;28;20431;-82
2022/10/07 04:59:31;;;;;;;11.65;7.20;;;;;;;16.73;81.30;101815.78;5030641;28;20052;-82
2022/10/07 05:02:01;;;;;;;10.07;6.28;;;;;;;16.42;81.63;101819.63;5029780;28;20052;-83
2022/10/07 05:04:33;;;;;;;10.00;6.95;;;;;;;16.53;80.75;101823.16;5030714;28;20048;-82
2022/10/07 05:07:02;;;;;;;11.55;6.82;;;;;;;16.58;80.68;101827.78;5026616;28;20412;-82
2022/10/07 05:09:32;;;;;;;9.75;6.03;;;;;;;16.83;80.17;101826.72;5026084;28;20042;-82
2022/10/07 05:12:00;;;;;;;10.13;5.90;;;;;;;16.97;78.93;101831.56;5028404;28;20046;-82
2022/10/07 05:14:32;;;;;;;8.95;5.63;;;;;;;17.03;78.59;101822.13;5030800;28;20396;-82
2022/10/07 05:17:02;;;;;;;11.98;6.38;;;;;;;17.00;77.70;101825.44;5020224;28;20050;-82
2022/10/07 05:19:34;;;;;;;9.65;6.18;;;;;;;16.57;80.29;101826.97;5044738;28;20043;-83
2022/10/07 05:22:02;;;;;;;12.10;6.68;;;;;;;16.50;80.35;101830.06;5029728;28;20045;-83
2022/10/07 05:24:31;;;;;;;8.68;6.13;;;;;;;16.44;80.98;101831.22;5046990;28;20050;-83
2022/10/07 05:27:00;;;;;;;10.10;6.35;;;;;;;16.34;81.69;101826.63;5029677;28;20046;-83
2022/10/07 05:29:28;;;;;;;10.10;5.95;;;;;;;16.45;80.96;101832.88;5030750;28;20041;-83
2022/10/07 05:31:56;;;;;;;9.63;6.32;;;;;;;16.54;80.33;101833.09;5043009;28;20393;-83
2022/10/07 05:34:32;;;;;;;9.25;6.57;;;;;;;16.74;79.21;101831.22;5030592;28;20045;-82
2022/10/07 05:37:00;;;;;;;9.35;5.90;;;;;;;16.63;79.86;101836.03;5030450;28;20373;-82
2022/10/07 05:39:27;;;;;;;8.35;5.97;;;;;;;16.62;80.08;101837.16;5031227;28;20829;-83
2022/10/07 05:42:03;;;;;;;8.07;5.90;;;;;;;16.40;80.66;101838.44;5025396;28;20034;-69
2022/10/07 05:44:37;;;;;;;8.15;5.90;;;;;;;16.29;81.46;101837.72;5024836;28;20045;-71
2022/10/07 05:47:06;;;;;;;12.65;6.00;;;;;;;16.07;82.99;101835.38;5025815;28;20421;-71
2022/10/07 05:49:34;;;;;;;8.93;5.97;;;;;;;15.92;83.43;101828.84;5022898;28;20476;-71
2022/10/07 05:52:03;;;;;;;12.13;6.22;;;;;;;15.87;83.92;101836.31;5046515;28;20045;-71
2022/10/07 05:54:33;;;;;;;8.18;6.60;;;;;;;15.76;84.93;101827.25;5026744;28;20531;-72
2022/10/07 05:57:02;;;;;;;13.20;6.45;;;;;;;15.80;86.26;101820.88;5028336;28;20036;-71
2022/10/07 05:59:30;;;;;;;7.88;5.75;;;;;;;15.94;83.69;101831.31;5026597;28;20050;-72
2022/10/07 06:01:59;;;;;;;10.50;5.72;;;;;;;16.02;83.85;101838.19;5042656;28;20045;-71
2022/10/07 06:04:28;;;;;;;8.65;5.78;;;;;;;16.07;83.89;101836.19;5032523;28;20053;-71
2022/10/07 06:06:56;;;;;;;9.15;5.88;;;;;;;16.18;83.25;101836.13;5034746;28;20057;-72
2022/10/07 06:15:09;;;;;;;8.20;6.25;;;;;;;16.83;79.88;101825.91;5038646;28;20048;-72
2022/10/07 06:17:43;;;;;;;11.18;6.75;;;;;;;16.88;80.30;101832.22;5031464;28;20385;-71
2022/10/07 06:20:14;;;;;;;9.27;6.35;;;;;;;16.93;80.20;101829.38;5033453;28;20053;-72
2022/10/07 06:22:43;;;;;;;10.35;5.70;;;;;;;17.06;80.11;101838.13;5033265;28;20506;-72
2022/10/07 06:25:14;;;;;;;8.27;6.03;;;;;;;17.42;79.25;101840.47;5030060;28;20069;-72
2022/10/07 06:27:43;;;;;;;10.63;5.93;;;;;;;17.68;77.85;101837.38;5025697;28;20045;-72
2022/10/07 06:30:16;;;;;;;9.87;6.50;;;;;;;17.76;76.79;101835.03;5030067;28;20057;-72
2022/10/07 06:32:44;;;;;;;9.23;5.68;;;;;;;17.86;76.13;101849.56;5027508;28;20053;-72
2022/10/07 06:35:13;;;;;;;7.40;5.47;;;;;;;17.89;75.55;101839.03;5029785;28;20046;-72
2022/10/07 06:37:41;;;;;;;8.23;5.63;;;;;;;18.08;75.14;101837.09;5026299;28;20066;-72
2022/10/07 06:40:10;;;;;;;8.75;5.68;;;;;;;18.10;75.18;101842.34;5033034;28;20048;-72
2022/10/07 06:42:39;;;;;;;8.93;5.28;;;;;;;18.20;75.57;101841.34;5032689;28;20056;-72
2022/10/07 06:45:32;;;;;;;6.80;5.15;;;;;;;18.72;74.49;101834.97;5019286;28;20054;-72
2022/10/07 06:48:01;;;;;;;6.07;4.63;;;;;;;18.94;73.08;101839.81;5028620;28;20050;-72
2022/10/07 06:50:30;;;;;;;8.70;5.72;;;;;;;19.11;72.53;101832.88;5048446;28;20049;-72
2022/10/07 06:52:59;;;;;;;7.45;5.68;;;;;;;19.22;71.98;101842.63;5049276;28;20045;-72
2022/10/07 06:55:29;;;;;;;8.52;5.63;;;;;;;19.04;73.43;101841.59;5049289;28;20033;-72
2022/10/07 06:57:57;;;;;;;8.77;5.22;;;;;;;19.19;71.96;101852.41;5034017;28;20042;-72
2022/10/07 07:00:26;;;;;;;8.50;4.88;;;;;;;19.37;71.26;101843.44;5048918;28;20048;-72
2022/10/07 07:02:54;;;;;;;7.50;5.32;;;;;;;19.51;71.67;101846.22;5029351;28;20053;-72
2022/10/07 07:05:22;;;;;;;7.43;5.90;;;;;;;19.93;69.31;101846.09;5029525;28;20048;-72
2022/10/07 07:07:51;;;;;;;7.47;5.72;;;;;;;19.93;70.30;101846.94;5012818;28;20057;-72
2022/10/07 07:10:18;;;;;;;7.25;5.30;;;;;;;20.04;69.42;101852.31;5025503;28;20053;-72
2022/10/07 07:12:53;;;;;;;7.07;4.85;;;;;;;20.25;68.16;101849.84;5032528;28;20041;-72
2022/10/07 07:15:21;;;;;;;10.25;5.60;;;;;;;20.80;67.16;101856.25;5031431;28;20045;-72
2022/10/07 07:17:49;;;;;;;7.90;5.63;;;;;;;20.89;64.89;101856.31;5047941;28;20060;-72
2022/10/07 07:20:17;;;;;;;7.68;5.10;;;;;;;21.10;64.63;101864.13;5047964;28;20511;-72
2022/10/07 07:22:46;;;;;;;8.80;5.30;;;;;;;21.25;64.20;101860.09;5047988;28;20049;-73
2022/10/07 07:25:14;;;;;;;7.55;5.50;;;;;;;21.19;65.71;101860.22;5047942;28;20045;-72
2022/10/07 07:27:42;;;;;;;10.55;6.00;;;;;;;21.15;64.81;101866.72;5029307;28;20500;-72
2022/10/07 07:30:12;;;;;;;5.72;4.95;;;;;;;21.57;64.76;101863.59;5033415;28;20045;-73
2022/10/07 07:32:42;;;;;;;9.25;5.07;;;;;;;21.55;63.85;101860.31;5028581;28;20046;-72
2022/10/07 07:35:10;;;;;;;6.82;5.13;;;;;;;21.82;63.88;101872.34;5019519;28;20512;-72
2022/10/07 07:37:38;;;;;;;6.28;4.32;;;;;;;21.86;63.43;101865.78;5048612;28;20041;-72
2022/10/07 07:40:07;;;;;;;9.43;5.03;;;;;;;21.94;62.44;101866.94;5047644;28;20042;-72
2022/10/07 07:42:36;;;;;;;7.15;4.50;;;;;;;22.17;62.34;101858.44;5030907;28;20049;-72
2022/10/07 07:45:08;;;;;;;8.68;4.53;;;;;;;22.23;61.81;101861.84;5044031;28;20504;-72
2022/10/07 07:47:35;;;;;;;7.45;4.25;;;;;;;22.43;61.67;101871.50;5037976;28;20060;-72
2022/10/07 07:50:04;;;;;;;6.82;4.50;;;;;;;22.64;60.86;101870.88;5030933;28;20072;-72
2022/10/07 07:52:34;;;;;;;5.55;4.30;;;;;;;22.57;61.21;101864.97;5028242;28;20523;-72
2022/10/07 07:55:04;;;;;;;8.05;4.57;;;;;;;22.64;61.04;101866.09;5027483;28;20045;-72
2022/10/07 07:57:32;;;;;;;6.70;4.57;;;;;;;22.59;60.69;101865.47;5048073;28;20053;-72
2022/10/07 08:00:06;;;;;;;5.70;4.43;;;;;;;22.86;60.99;101855.06;5029326;28;20054;-72
2022/10/07 08:02:53;;;;;;;5.78;4.65;;;;;;;23.05;59.45;101858.25;5031431;28;20045;-72
2022/10/07 08:05:21;;;;;;;5.07;3.85;;;;;;;23.12;58.31;101851.34;5031383;28;20045;-73
2022/10/07 08:07:54;;;;;;;5.22;4.07;;;;;;;23.16;56.83;101849.53;5047820;28;20041;-72
2022/10/07 08:10:24;;;;;;;5.10;3.97;;;;;;;23.27;56.84;101853.53;5047870;28;20053;-73
2022/10/07 08:12:52;;;;;;;5.90;4.32;;;;;;;23.40;56.60;101842.53;5047137;28;20365;-72
2022/10/07 08:15:20;;;;;;;6.75;4.15;;;;;;;23.82;55.98;101844.53;5031506;28;20046;-73
2022/10/07 08:17:49;;;;;;;6.18;4.07;;;;;;;23.71;55.29;101841.31;5030123;28;20048;-73
2022/10/07 08:20:18;;;;;;;6.18;3.80;;;;;;;23.79;54.34;101836.84;5046794;28;20050;-72
2022/10/07 08:22:46;;;;;;;5.30;4.30;;;;;;;24.11;54.60;101835.28;5032004;28;20053;-72
2022/10/07 08:25:15;;;;;;;4.97;3.83;;;;;;;24.20;54.21;101845.56;5047589;28;20407;-73
2022/10/07 08:27:44;;;;;;;6.18;4.18;;;;;;;24.12;53.36;101842.50;5047232;28;20419;-73
2022/10/07 08:30:13;;;;;;;7.85;4.35;;;;;;;24.26;52.57;101831.03;5030977;28;20061;-72
2022/10/07 08:32:41;;;;;;;6.50;4.20;;;;;;;24.53;52.37;101836.31;5030825;28;20050;-73
2022/10/07 08:35:08;;;;;;;5.65;4.43;;;;;;;24.59;51.52;101834.13;5032086;28;20045;-72
2022/10/07 08:37:36;;;;;;;5.30;4.40;;;;;;;25.02;50.71;101835.63;5031900;28;20056;-73
2022/10/07 08:40:05;;;;;;;5.60;3.97;;;;;;;25.07;49.74;101840.19;5031676;28;20515;-72
2022/10/07 08:42:37;;;;;;;5.35;3.90;;;;;;;25.25;49.62;101828.72;5031025;28;20041;-73
2022/10/07 08:45:09;;;;;;;7.55;3.70;;;;;;;25.44;48.80;101820.53;5026441;28;20052;-72
2022/10/07 08:47:45;;;;;;;6.63;4.13;;;;;;;25.54;48.42;101824.03;5021790;28;20056;-72
2022/10/07 08:50:38;;;;;;;5.95;3.60;;;;;;;26.11;47.55;101813.72;5031404;28;20049;-72
2022/10/07 08:53:13;;;;;;;5.57;3.25;;;;;;;25.92;46.20;101811.56;5029198;28;20046;-72
2022/10/07 08:55:48;;;;;;;5.65;3.70;;;;;;;25.53;47.25;101811.19;5030908;28;20050;-73
2022/10/07 08:58:44;;;;;;;4.88;3.25;;;;;;;25.75;46.04;101801.44;5031781;28;20403;-73
2022/10/07 09:01:23;;;;;;;5.57;3.15;;;;;;;25.97;46.80;101796.47;5031855;28;20041;-72
2022/10/07 09:04:03;;;;;;;3.90;3.53;;;;;;;25.99;46.21;101791.31;5031612;28;20408;-73
2022/10/07 09:06:37;;;;;;;6.63;3.40;;;;;;;25.92;46.43;101785.50;5031764;28;20057;-72
2022/10/07 09:09:16;;;;;;;;;;;;;;;25.76;45.99;101792.69;5031705;28;20049;-72
2022/10/07 09:11:47;;;;;;;2.78;2.20;;;;;;;25.58;44.04;101782.94;5030873;28;19921;-73
2022/10/07 09:14:28;;;;;;;6.70;2.75;;;;;;;25.82;44.39;101781.22;5030584;28;20049;-72
2022/10/07 09:17:07;;;;;;;5.18;2.88;;;;;;;25.71;43.80;101781.72;5030829;28;20053;-72
2022/10/07 09:19:42;;;;;;;3.35;2.10;;;;;;;25.94;41.66;101781.19;5046493;28;20052;-72
2022/10/07 09:22:20;;;;;;;5.88;2.17;;;;;;;25.88;42.23;101772.22;5031666;28;20056;-73
2022/10/07 09:24:57;;;;;;;3.67;2.38;;;;;;;26.14;43.19;101775.69;5031397;28;20071;-72
2022/10/07 09:27:25;;;;;;;3.65;2.55;;;;;;;26.48;40.95;101776.22;5031337;28;20042;-73
2022/10/07 09:29:53;;;;;;;2.80;2.60;;;;;;;26.43;42.71;101757.69;5031452;28;20030;-73
2022/10/07 09:32:21;;;;;;;2.83;2.30;;;;;;;26.76;42.21;101775.31;5031477;28;20049;-73
2022/10/07 09:34:51;;;;;;;2.92;2.45;;;;;;;26.47;42.54;101763.38;5031344;28;20499;-73
2022/10/07 09:37:20;;;;;;;4.13;2.63;;;;;;;26.73;41.44;101764.00;5031427;28;20052;-73
2022/10/07 09:39:50;;;;;;;4.47;2.05;;;;;;;26.94;41.54;101766.56;5033870;28;20053;-73
2022/10/07 09:42:30;;;;;;;3.55;2.50;;;;;;;26.95;40.59;101765.38;5034537;28;20042;-73
2022/10/07 09:45:16;;;;;;;3.22;2.30;;;;;;;26.73;40.62;101758.41;5034236;28;20049;-73
2022/10/07 09:47:51;;;;;;;4.10;2.22;;;;;;;26.92;40.22;101757.66;5029770;28;20065;-73
2022/10/07 09:50:30;;;;;;;2.40;1.90;;;;;;;27.20;39.75;101759.50;5034084;28;20041;-74
2022/10/07 09:53:00;;;;;;;3.17;2.20;;;;;;;27.31;39.70;101763.38;5034018;28;20053;-72
2022/10/07 09:55:38;;;;;;;2.75;2.10;;;;;;;27.02;40.66;101750.69;5035029;28;20045;-73
2022/10/07 09:58:17;;;;;;;2.67;2.10;;;;;;;27.07;39.37;101756.81;5030487;28;20055;-72
2022/10/07 10:00:48;;;;;;;5.07;2.40;;;;;;;26.74;40.14;101746.00;5021955;28;20049;-73
2022/10/07 10:03:18;;;;;;;2.47;2.03;;;;;;;26.86;40.38;101751.50;5035045;28;20484;-73
2022/10/07 10:06:02;;;;;;;3.28;2.00;;;;;;;27.24;40.30;101752.00;5021134;28;20060;-73
2022/10/07 10:08:34;;;;;;;2.50;2.00;;;;;;;27.46;40.07;101746.84;5034822;28;20049;-73
2022/10/07 10:11:05;;;;;;;3.33;2.60;;;;;;;27.40;38.74;101746.31;5033827;28;20042;-72
2022/10/07 10:13:39;;;;;;;2.97;2.05;;;;;;;27.51;39.58;101746.53;5034035;28;20041;-72
2022/10/07 10:16:29;;;;;;;2.33;2.13;;;;;;;27.68;39.34;101741.69;5033757;28;20048;-72
2022/10/07 10:19:01;;;;;;;2.10;1.90;;;;;;;27.85;37.98;101738.41;5034353;28;20041;-73
2022/10/07 10:21:34;;;;;;;2.33;2.08;;;;;;;27.85;38.72;101729.19;5034414;28;20041;-73
2022/10/07 10:24:11;;;;;;;3.17;2.10;;;;;;;27.83;38.61;101723.91;5034593;28;20045;-73
2022/10/07 10:26:47;;;;;;;2.33;2.13;;;;;;;28.15;37.94;101728.53;5029996;28;20516;-72
2022/10/07 10:29:31;;;;;;;2.47;2.28;;;;;;;27.70;39.13;101717.63;5028043;28;20417;-84
2022/10/07 10:32:26;;;;;;;2.60;2.40;;;;;;;26.58;39.75;101723.56;5034651;28;20042;-84
2022/10/07 10:35:13;;;;;;;1.80;1.70;;;;;;;26.54;41.27;101709.44;5034479;28;20045;-83
2022/10/07 10:38:09;;;;;;;2.17;1.90;;;;;;;26.33;41.21;101710.50;5034376;28;20045;-83
2022/10/07 10:40:49;;;;;;;3.40;2.42;;;;;;;26.22;42.19;101700.97;5022857;28;20049;-83
2022/10/07 10:43:35;;;;;;;6.20;2.35;;;;;;;25.93;41.88;101701.03;5033341;28;20048;-83
2022/10/07 10:46:03;;;;;;;3.63;2.70;;;;;;;25.92;41.91;101690.16;5033426;28;20057;-84
2022/10/07 10:48:31;;;;;;;2.75;2.00;;;;;;;25.99;41.44;101694.00;5033516;28;20054;-83
2022/10/07 10:51:22;;;;;;;2.25;2.05;;;;;;;26.18;41.93;101695.28;5034453;28;20046;-85
2022/10/07 10:54:05;;;;;;;6.72;2.30;;;;;;;26.08;42.05;101685.41;5033879;28;20488;-84
2022/10/07 10:56:33;;;;;;;2.25;1.98;;;;;;;26.04;42.40;101692.91;5034111;28;20049;-84
2022/10/07 10:59:28;;;;;;;2.75;2.10;;;;;;;26.02;42.08;101679.25;5033857;28;20038;-84
2022/10/07 11:02:22;;;;;;;3.65;2.45;;;;;;;25.81;41.52;101673.06;5034007;28;20045;-83
2022/10/07 11:05:01;;;;;;;3.60;2.07;;;;;;;26.11;41.63;101667.03;5034060;28;20052;-84
2022/10/07 11:07:38;;;;;;;3.20;2.25;;;;;;;26.05;42.13;101657.28;5029264;28;20050;-84
2022/10/07 11:10:24;;;;;;;3.85;2.40;;;;;;;26.05;43.14;101651.66;5033847;28;20064;-84
2022/10/07 11:13:10;;;;;;;6.18;1.92;;;;;;;26.14;41.78;101649.47;5048158;28;20118;-82
2022/10/07 11:15:43;;;;;;;2.72;2.10;;;;;;;26.15;41.51;101632.28;5032915;28;20053;-82
2022/10/07 11:18:39;;;;;;;2.88;2.00;;;;;;;26.32;42.31;101635.94;5032837;28;20400;-82
2022/10/07 11:21:30;;;;;;;2.80;2.00;;;;;;;26.40;42.41;101639.72;5032608;28;20054;-83
2022/10/07 11:24:03;;;;;;;3.22;2.08;;;;;;;26.38;41.88;101628.03;5033472;28;20048;-82
2022/10/07 11:26:33;;;;;;;2.60;2.40;;;;;;;26.37;41.39;101632.03;5033405;28;20057;-82
2022/10/07 11:29:22;;;;;;;2.58;2.35;;;;;;;26.43;41.14;101628.59;5033524;28;20436;-83
2022/10/07 11:32:16;;;;;;;2.22;1.95;;;;;;;26.41;40.57;101618.91;5033528;28;20037;-82
2022/10/07 11:35:21;;;;;;;4.18;2.22;;;;;;;26.10;39.92;101604.50;5033288;28;20056;-82
2022/10/07 11:38:13;;;;;;;5.53;2.30;;;;;;;26.52;41.08;101617.16;5028711;28;20052;-84
2022/10/07 11:40:53;;;;;;;4.72;2.42;;;;;;;26.67;40.82;101600.63;5022124;28;20495;-84
2022/10/07 11:43:32;;;;;;;5.20;2.80;;;;;;;26.47;39.01;101597.81;5027640;28;20408;-83
2022/10/07 11:46:13;;;;;;;1.95;1.85;;;;;;;26.63;39.79;101592.16;5023787;28;20037;-83
2022/10/07 11:48:50;;;;;;;7.97;2.35;;;;;;;26.38;39.64;101594.38;5032458;28;20049;-82
2022/10/07 11:51:28;;;;;;;2.22;2.03;;;;;;;26.40;40.06;101578.00;5033052;28;20061;-83
2022/10/07 11:53:59;;;;;;;2.10;1.90;;;;;;;26.51;39.87;101579.06;5033042;28;20037;-83
2022/10/07 11:56:51;;;;;;;2.38;2.17;;;;;;;26.59;39.34;101573.59;5033091;28;20056;-83
2022/10/07 11:59:42;;;;;;;3.80;2.20;;;;;;;26.99;40.07;101571.66;5032725;28;20045;-84